createdAt,value
2022-11-24T00:00:03.910Z,1005.93
2022-11-24T00:00:13.469Z,1006.01
2022-11-24T00:00:22.984Z,1006.11
2022-11-24T00:00:32.419Z,1006.00
2022-11-24T00:00:41.869Z,1005.97
2022-11-24T00:00:51.355Z,1005.95
2022-11-24T00:01:00.820Z,1006.01
2022-11-24T00:01:10.260Z,1006.01
2022-11-24T00:01:19.674Z,1006.02
2022-11-24T00:01:29.156Z,1005.99
2022-11-24T00:01:38.605Z,1006.10
2022-11-24T00:01:48.089Z,1006.01
2022-11-24T00:01:57.570Z,1005.98
2022-11-24T00:02:07.082Z,1006.00
2022-11-24T00:02:16.569Z,1006.05
2022-11-24T00:02:25.941Z,1005.97
2022-11-24T00:02:44.866Z,1006.03
2022-11-24T00:02:54.247Z,1005.99
2022-11-24T00:03:03.768Z,1006.05
2022-11-24T00:03:13.189Z,1006.05
2022-11-24T00:03:22.698Z,1006.07
2022-11-24T00:03:32.063Z,1006.02
2022-11-24T00:03:41.599Z,1005.93
2022-11-24T00:03:50.927Z,1005.98
2022-11-24T00:04:00.373Z,1006.01
2022-11-24T00:04:09.815Z,1005.93
2022-11-24T00:04:19.267Z,1006.00
2022-11-24T00:04:28.693Z,1005.95
2022-11-24T00:04:38.165Z,1005.95
2022-11-24T00:04:47.599Z,1006.01
2022-11-24T00:04:57.038Z,1006.05
2022-11-24T00:05:06.472Z,1005.96
2022-11-24T00:05:15.957Z,1005.99
2022-11-24T00:05:34.870Z,1006.06
2022-11-24T00:05:44.301Z,1006.07
2022-11-24T00:05:53.754Z,1005.94
2022-11-24T00:06:03.202Z,1006.04
2022-11-24T00:06:12.691Z,1006.00
2022-11-24T00:06:22.144Z,1005.97
2022-11-24T00:06:31.630Z,1005.95
2022-11-24T00:06:41.060Z,1006.07
2022-11-24T00:06:50.483Z,1006.01
2022-11-24T00:06:59.934Z,1005.97
2022-11-24T00:07:09.489Z,1006.01
2022-11-24T00:07:18.868Z,1005.96
2022-11-24T00:07:28.342Z,1005.97
2022-11-24T00:07:37.818Z,1005.95
2022-11-24T00:07:47.254Z,1006.04
2022-11-24T00:07:56.690Z,1006.00
2022-11-24T00:08:06.084Z,1006.04
2022-11-24T00:08:24.985Z,1005.92
2022-11-24T00:08:34.422Z,1006.09
2022-11-24T00:08:43.873Z,1006.10
2022-11-24T00:08:53.338Z,1006.01
2022-11-24T00:09:02.784Z,1005.99
2022-11-24T00:09:12.212Z,1005.98
2022-11-24T00:09:21.658Z,1006.00
2022-11-24T00:09:31.105Z,1006.07
2022-11-24T00:09:40.536Z,1006.02
2022-11-24T00:09:50.046Z,1006.05
2022-11-24T00:09:59.503Z,1005.95
2022-11-24T00:10:08.964Z,1005.97
2022-11-24T00:10:18.421Z,1005.99
2022-11-24T00:10:27.866Z,1006.08
2022-11-24T00:10:37.332Z,1006.05
2022-11-24T00:10:46.807Z,1006.02
2022-11-24T00:10:56.331Z,1006.00
2022-11-24T00:11:05.790Z,1006.06
2022-11-24T00:11:24.712Z,1005.95
2022-11-24T00:11:34.186Z,1005.98
2022-11-24T00:11:43.628Z,1006.06
2022-11-24T00:11:53.078Z,1006.03
2022-11-24T00:12:02.545Z,1006.01
2022-11-24T00:12:12.007Z,1006.03
2022-11-24T00:12:21.477Z,1006.04
2022-11-24T00:12:30.948Z,1006.03
2022-11-24T00:12:40.386Z,1005.95
2022-11-24T00:12:49.811Z,1006.11
2022-11-24T00:12:59.284Z,1006.02
2022-11-24T00:13:08.750Z,1006.02
2022-11-24T00:13:18.198Z,1005.97
2022-11-24T00:13:27.694Z,1005.96
2022-11-24T00:13:37.113Z,1006.07
2022-11-24T00:13:46.556Z,1006.02
2022-11-24T00:13:56.011Z,1005.97
2022-11-24T00:14:14.910Z,1005.98
2022-11-24T00:14:24.360Z,1005.98
2022-11-24T00:14:33.988Z,1005.97
2022-11-24T00:14:43.282Z,1005.90
2022-11-24T00:14:52.688Z,1005.94
2022-11-24T00:15:02.113Z,1006.09
2022-11-24T00:15:11.559Z,1006.07
2022-11-24T00:15:21.026Z,1005.97
2022-11-24T00:15:30.507Z,1006.02
2022-11-24T00:15:39.955Z,1005.97
2022-11-24T00:15:49.379Z,1006.01
2022-11-24T00:15:58.967Z,1005.96
2022-11-24T00:16:08.424Z,1006.02
2022-11-24T00:16:17.886Z,1006.14
2022-11-24T00:16:27.425Z,1005.98
2022-11-24T00:16:36.954Z,1006.02
2022-11-24T00:16:46.281Z,1006.04
2022-11-24T00:16:55.715Z,1006.07
2022-11-24T00:17:14.484Z,1006.03
2022-11-24T00:17:23.940Z,1006.13
2022-11-24T00:17:33.407Z,1006.00
2022-11-24T00:17:42.850Z,1005.98
2022-11-24T00:17:52.300Z,1005.98
2022-11-24T00:18:01.739Z,1006.15
2022-11-24T00:18:11.192Z,1006.09
2022-11-24T00:18:20.616Z,1006.14
2022-11-24T00:18:30.063Z,1006.03
2022-11-24T00:18:39.509Z,1006.05
2022-11-24T00:18:48.963Z,1006.08
2022-11-24T00:18:58.480Z,1006.11
2022-11-24T00:19:07.959Z,1006.18
2022-11-24T00:19:19.970Z,1006.17
2022-11-24T00:19:26.814Z,1006.04
2022-11-24T00:19:36.255Z,1006.13
2022-11-24T00:19:45.707Z,1006.14
2022-11-24T00:20:04.608Z,1006.05
2022-11-24T00:20:14.082Z,1006.02
2022-11-24T00:20:23.492Z,1006.03
2022-11-24T00:20:32.929Z,1006.05
2022-11-24T00:20:42.380Z,1006.06
2022-11-24T00:20:51.811Z,1006.08
2022-11-24T00:21:01.243Z,1005.99
2022-11-24T00:21:10.793Z,1006.02
2022-11-24T00:21:20.281Z,1006.18
2022-11-24T00:21:29.750Z,1006.11
2022-11-24T00:21:39.256Z,1006.03
2022-11-24T00:21:48.717Z,1006.01
2022-11-24T00:21:58.201Z,1006.05
2022-11-24T00:22:07.863Z,1006.03
2022-11-24T00:22:17.327Z,1006.06
2022-11-24T00:22:26.739Z,1006.08
2022-11-24T00:22:36.153Z,1006.05
2022-11-24T00:22:45.582Z,1006.04
2022-11-24T00:23:04.488Z,1006.05
2022-11-24T00:23:13.928Z,1006.15
2022-11-24T00:23:23.355Z,1006.11
2022-11-24T00:23:32.782Z,1006.06
2022-11-24T00:23:42.227Z,1006.07
2022-11-24T00:23:51.696Z,1005.98
2022-11-24T00:24:01.138Z,1006.07
2022-11-24T00:24:10.565Z,1006.07
2022-11-24T00:24:20.074Z,1006.10
2022-11-24T00:24:29.511Z,1005.94
2022-11-24T00:24:38.971Z,1005.98
2022-11-24T00:24:48.438Z,1005.97
2022-11-24T00:24:57.928Z,1006.04
2022-11-24T00:25:07.391Z,1006.00
2022-11-24T00:25:16.820Z,1006.05
2022-11-24T00:25:26.243Z,1006.02
2022-11-24T00:25:35.671Z,1006.01
2022-11-24T00:25:54.589Z,1006.03
2022-11-24T00:26:04.032Z,1006.02
2022-11-24T00:26:13.454Z,1006.11
2022-11-24T00:26:22.925Z,1006.09
2022-11-24T00:26:32.440Z,1006.05
2022-11-24T00:26:41.848Z,1005.95
2022-11-24T00:26:51.296Z,1006.04
2022-11-24T00:27:00.750Z,1006.09
2022-11-24T00:27:10.253Z,1006.05
2022-11-24T00:27:19.716Z,1006.00
2022-11-24T00:27:29.136Z,1006.06
2022-11-24T00:27:38.578Z,1006.07
2022-11-24T00:27:48.019Z,1006.07
2022-11-24T00:27:57.486Z,1006.00
2022-11-24T00:28:06.906Z,1006.05
2022-11-24T00:28:16.320Z,1006.00
2022-11-24T00:28:25.844Z,1006.02
2022-11-24T00:28:44.697Z,1006.02
2022-11-24T00:28:54.218Z,1006.06
2022-11-24T00:29:03.633Z,1006.03
2022-11-24T00:29:13.091Z,1006.00
2022-11-24T00:29:22.532Z,1006.02
2022-11-24T00:29:31.992Z,1006.09
2022-11-24T00:29:41.458Z,1006.08
2022-11-24T00:29:50.944Z,1006.09
2022-11-24T00:30:00.374Z,1006.06
2022-11-24T00:30:09.853Z,1006.06
2022-11-24T00:30:19.284Z,1006.07
2022-11-24T00:30:28.789Z,1006.02
2022-11-24T00:30:38.221Z,1006.07
2022-11-24T00:30:47.756Z,1006.03
2022-11-24T00:30:57.216Z,1005.99
2022-11-24T00:31:06.634Z,1006.12
2022-11-24T00:31:17.524Z,1006.08
2022-11-24T00:31:34.985Z,1006.07
2022-11-24T00:31:44.346Z,1006.03
2022-11-24T00:31:53.760Z,1006.02
2022-11-24T00:32:03.336Z,1006.06
2022-11-24T00:32:12.787Z,1006.08
2022-11-24T00:32:22.231Z,1006.11
2022-11-24T00:32:31.644Z,1006.06
2022-11-24T00:32:41.077Z,1006.02
2022-11-24T00:32:50.511Z,1006.04
2022-11-24T00:32:59.948Z,1005.99
2022-11-24T00:33:09.403Z,1006.03
2022-11-24T00:33:18.839Z,1006.01
2022-11-24T00:33:28.278Z,1006.10
2022-11-24T00:33:37.779Z,1006.06
2022-11-24T00:33:47.240Z,1006.02
2022-11-24T00:33:56.758Z,1006.10
2022-11-24T00:34:06.212Z,1005.95
2022-11-24T00:34:15.647Z,1006.04
2022-11-24T00:34:34.833Z,1006.08
2022-11-24T00:34:43.998Z,1006.03
2022-11-24T00:34:53.464Z,1006.09
2022-11-24T00:35:02.916Z,1006.05
2022-11-24T00:35:12.357Z,1006.00
2022-11-24T00:35:21.779Z,1006.15
2022-11-24T00:35:31.285Z,1006.08
2022-11-24T00:35:40.752Z,1006.09
2022-11-24T00:35:50.180Z,1006.08
2022-11-24T00:35:59.600Z,1006.08
2022-11-24T00:36:09.042Z,1006.10
2022-11-24T00:36:18.499Z,1006.11
2022-11-24T00:36:27.946Z,1006.04
2022-11-24T00:36:37.379Z,1006.07
2022-11-24T00:36:46.808Z,1006.15
2022-11-24T00:36:56.233Z,1006.07
2022-11-24T00:37:05.651Z,1006.06
2022-11-24T00:37:24.541Z,1006.08
2022-11-24T00:37:33.998Z,1006.08
2022-11-24T00:37:43.441Z,1006.09
2022-11-24T00:37:52.896Z,1006.18
2022-11-24T00:38:02.574Z,1006.09
2022-11-24T00:38:11.994Z,1006.05
2022-11-24T00:38:21.471Z,1006.11
2022-11-24T00:38:30.974Z,1006.11
2022-11-24T00:38:40.398Z,1006.15
2022-11-24T00:38:49.838Z,1006.08
2022-11-24T00:38:59.298Z,1006.15
2022-11-24T00:39:08.756Z,1006.05
2022-11-24T00:39:18.179Z,1006.12
2022-11-24T00:39:27.598Z,1006.17
2022-11-24T00:39:37.025Z,1006.10
2022-11-24T00:39:46.443Z,1006.17
2022-11-24T00:39:55.880Z,1006.10
2022-11-24T00:40:14.777Z,1006.10
2022-11-24T00:40:24.247Z,1006.15
2022-11-24T00:40:35.176Z,1006.22
2022-11-24T00:40:43.107Z,1006.15
2022-11-24T00:40:52.550Z,1006.14
2022-11-24T00:41:02.034Z,1006.19
2022-11-24T00:41:11.477Z,1006.12
2022-11-24T00:41:20.908Z,1006.13
2022-11-24T00:41:30.407Z,1006.18
2022-11-24T00:41:39.865Z,1006.22
2022-11-24T00:41:49.311Z,1006.16
2022-11-24T00:41:58.757Z,1006.16
2022-11-24T00:42:08.192Z,1006.21
2022-11-24T00:42:17.623Z,1006.16
2022-11-24T00:42:27.104Z,1006.09
2022-11-24T00:42:36.532Z,1006.15
2022-11-24T00:42:46.029Z,1006.16
2022-11-24T00:43:05.068Z,1006.16
2022-11-24T00:43:14.510Z,1006.23
2022-11-24T00:43:23.983Z,1006.20
2022-11-24T00:43:33.440Z,1006.20
2022-11-24T00:43:42.887Z,1006.11
2022-11-24T00:43:52.354Z,1006.14
2022-11-24T00:44:01.832Z,1006.21
2022-11-24T00:44:11.273Z,1006.23
2022-11-24T00:44:20.730Z,1006.18
2022-11-24T00:44:30.209Z,1006.23
2022-11-24T00:44:39.630Z,1006.21
2022-11-24T00:44:49.070Z,1006.20
2022-11-24T00:44:58.544Z,1006.18
2022-11-24T00:45:13.888Z,1006.22
2022-11-24T00:45:17.487Z,1006.15
2022-11-24T00:45:26.959Z,1006.18
2022-11-24T00:45:36.462Z,1006.17
2022-11-24T00:45:45.986Z,1006.21
2022-11-24T00:46:04.878Z,1006.19
2022-11-24T00:46:14.309Z,1006.18
2022-11-24T00:46:23.857Z,1006.20
2022-11-24T00:46:33.153Z,1006.23
2022-11-24T00:46:42.637Z,1006.17
2022-11-24T00:46:52.076Z,1006.17
2022-11-24T00:47:01.532Z,1006.26
2022-11-24T00:47:11.065Z,1006.24
2022-11-24T00:47:20.351Z,1006.30
2022-11-24T00:47:29.694Z,1006.27
2022-11-24T00:47:39.143Z,1006.38
2022-11-24T00:47:48.595Z,1006.27
2022-11-24T00:47:58.056Z,1006.38
2022-11-24T00:48:07.491Z,1006.33
2022-11-24T00:48:16.943Z,1006.35
2022-11-24T00:48:26.449Z,1006.35
2022-11-24T00:48:35.919Z,1006.28
2022-11-24T00:48:54.801Z,1006.28
2022-11-24T00:49:04.276Z,1006.28
2022-11-24T00:49:13.716Z,1006.23
2022-11-24T00:49:23.195Z,1006.28
2022-11-24T00:49:32.623Z,1006.25
2022-11-24T00:49:42.065Z,1006.23
2022-11-24T00:49:51.502Z,1006.20
2022-11-24T00:50:00.925Z,1006.34
2022-11-24T00:50:10.351Z,1006.32
2022-11-24T00:50:19.762Z,1006.26
2022-11-24T00:50:29.186Z,1006.29
2022-11-24T00:50:38.619Z,1006.27
2022-11-24T00:50:48.039Z,1006.25
2022-11-24T00:50:57.561Z,1006.28
2022-11-24T00:51:06.981Z,1006.28
2022-11-24T00:51:16.419Z,1006.20
2022-11-24T00:51:25.868Z,1006.28
2022-11-24T00:51:44.717Z,1006.25
2022-11-24T00:51:54.171Z,1006.19
2022-11-24T00:52:03.598Z,1006.28
2022-11-24T00:52:13.018Z,1006.26
2022-11-24T00:52:22.435Z,1006.24
2022-11-24T00:52:31.856Z,1006.27
2022-11-24T00:52:41.320Z,1006.23
2022-11-24T00:52:50.776Z,1006.36
2022-11-24T00:53:00.221Z,1006.23
2022-11-24T00:53:09.668Z,1006.29
2022-11-24T00:53:19.119Z,1006.25
2022-11-24T00:53:28.556Z,1006.29
2022-11-24T00:53:37.996Z,1006.22
2022-11-24T00:53:47.441Z,1006.20
2022-11-24T00:53:56.903Z,1006.21
2022-11-24T00:54:06.414Z,1006.24
2022-11-24T00:54:15.808Z,1006.23
2022-11-24T00:54:35.237Z,1006.14
2022-11-24T00:54:44.238Z,1006.24
2022-11-24T00:54:53.709Z,1006.29
2022-11-24T00:55:03.149Z,1006.21
2022-11-24T00:55:12.583Z,1006.25
2022-11-24T00:55:22.034Z,1006.31
2022-11-24T00:55:31.473Z,1006.25
2022-11-24T00:55:40.911Z,1006.27
2022-11-24T00:55:50.338Z,1006.20
2022-11-24T00:55:59.789Z,1006.25
2022-11-24T00:56:09.224Z,1006.28
2022-11-24T00:56:18.673Z,1006.23
2022-11-24T00:56:28.108Z,1006.18
2022-11-24T00:56:37.529Z,1006.22
2022-11-24T00:56:46.969Z,1006.23
2022-11-24T00:56:56.396Z,1006.17
2022-11-24T00:57:05.850Z,1006.25
2022-11-24T00:57:24.670Z,1006.20
2022-11-24T00:57:34.102Z,1006.32
2022-11-24T00:57:43.535Z,1006.22
2022-11-24T00:57:52.981Z,1006.17
2022-11-24T00:58:02.416Z,1006.19
2022-11-24T00:58:11.838Z,1006.21
2022-11-24T00:58:21.259Z,1006.17
2022-11-24T00:58:30.714Z,1006.12
2022-11-24T00:58:40.156Z,1006.17
2022-11-24T00:58:49.580Z,1006.25
2022-11-24T00:58:59.067Z,1006.28
2022-11-24T00:59:08.504Z,1006.20
2022-11-24T00:59:17.953Z,1006.16
2022-11-24T00:59:27.372Z,1006.15
2022-11-24T00:59:36.812Z,1006.22
2022-11-24T00:59:46.234Z,1006.20
2022-11-24T00:59:55.709Z,1006.31
2022-11-24T01:00:14.596Z,1006.13
2022-11-24T01:00:24.047Z,1006.15
2022-11-24T01:00:33.634Z,1006.25
2022-11-24T01:00:43.231Z,1006.26
2022-11-24T01:00:52.684Z,1006.27
2022-11-24T01:01:02.255Z,1006.25
2022-11-24T01:01:11.767Z,1006.31
2022-11-24T01:01:21.117Z,1006.16
2022-11-24T01:01:30.537Z,1006.21
2022-11-24T01:01:40.005Z,1006.20
2022-11-24T01:01:49.453Z,1006.17
2022-11-24T01:01:58.829Z,1006.21
2022-11-24T01:02:08.249Z,1006.26
2022-11-24T01:02:17.648Z,1006.20
2022-11-24T01:02:27.124Z,1006.18
2022-11-24T01:02:36.580Z,1006.21
2022-11-24T01:02:45.937Z,1006.26
2022-11-24T01:03:04.907Z,1006.32
2022-11-24T01:03:14.234Z,1006.28
2022-11-24T01:03:23.660Z,1006.13
2022-11-24T01:03:33.112Z,1006.18
2022-11-24T01:03:42.547Z,1006.13
2022-11-24T01:03:51.983Z,1006.19
2022-11-24T01:04:01.483Z,1006.21
2022-11-24T01:04:10.994Z,1006.16
2022-11-24T01:04:20.378Z,1006.11
2022-11-24T01:04:29.794Z,1006.12
2022-11-24T01:04:39.228Z,1006.08
2022-11-24T01:04:48.639Z,1006.16
2022-11-24T01:04:58.059Z,1006.15
2022-11-24T01:05:07.516Z,1006.18
2022-11-24T01:05:16.939Z,1006.14
2022-11-24T01:05:26.425Z,1006.20
2022-11-24T01:05:35.870Z,1006.14
2022-11-24T01:05:54.723Z,1006.15
2022-11-24T01:06:04.147Z,1006.16
2022-11-24T01:06:13.601Z,1006.22
2022-11-24T01:06:23.061Z,1006.17
2022-11-24T01:06:32.801Z,1006.25
2022-11-24T01:06:41.987Z,1006.24
2022-11-24T01:06:51.454Z,1006.30
2022-11-24T01:07:00.908Z,1006.26
2022-11-24T01:07:10.382Z,1006.26
2022-11-24T01:07:19.877Z,1006.21
2022-11-24T01:07:29.410Z,1006.23
2022-11-24T01:07:38.760Z,1006.23
2022-11-24T01:07:48.228Z,1006.21
2022-11-24T01:07:57.613Z,1006.21
2022-11-24T01:08:07.080Z,1006.14
2022-11-24T01:08:16.507Z,1006.16
2022-11-24T01:08:25.931Z,1006.16
2022-11-24T01:08:44.812Z,1006.20
2022-11-24T01:08:54.263Z,1006.24
2022-11-24T01:09:03.716Z,1006.21
2022-11-24T01:09:13.138Z,1006.22
2022-11-24T01:09:22.559Z,1006.21
2022-11-24T01:09:31.977Z,1006.20
2022-11-24T01:09:41.576Z,1006.20
2022-11-24T01:09:51.002Z,1006.25
2022-11-24T01:10:00.436Z,1006.20
2022-11-24T01:10:09.867Z,1006.18
2022-11-24T01:10:19.291Z,1006.17
2022-11-24T01:10:28.718Z,1006.18
2022-11-24T01:10:38.159Z,1006.17
2022-11-24T01:10:47.614Z,1006.22
2022-11-24T01:10:57.065Z,1006.12
2022-11-24T01:11:06.518Z,1006.20
2022-11-24T01:11:15.966Z,1006.16
2022-11-24T01:11:34.815Z,1006.17
2022-11-24T01:11:44.269Z,1006.20
2022-11-24T01:11:53.726Z,1006.23
2022-11-24T01:12:03.194Z,1006.23
2022-11-24T01:12:12.635Z,1006.21
2022-11-24T01:12:22.066Z,1006.26
2022-11-24T01:12:31.516Z,1006.21
2022-11-24T01:12:40.956Z,1006.24
2022-11-24T01:12:50.388Z,1006.17
2022-11-24T01:12:59.863Z,1006.22
2022-11-24T01:13:09.317Z,1006.12
2022-11-24T01:13:18.715Z,1006.21
2022-11-24T01:13:28.150Z,1006.14
2022-11-24T01:13:37.626Z,1006.19
2022-11-24T01:13:47.071Z,1006.19
2022-11-24T01:13:56.482Z,1006.20
2022-11-24T01:14:05.941Z,1006.16
2022-11-24T01:14:24.844Z,1006.20
2022-11-24T01:14:34.537Z,1006.24
2022-11-24T01:14:43.694Z,1006.20
2022-11-24T01:14:53.104Z,1006.31
2022-11-24T01:15:02.538Z,1006.28
2022-11-24T01:15:11.976Z,1006.21
2022-11-24T01:15:21.430Z,1006.22
2022-11-24T01:15:30.916Z,1006.18
2022-11-24T01:15:40.450Z,1006.25
2022-11-24T01:15:49.827Z,1006.24
2022-11-24T01:15:59.322Z,1006.19
2022-11-24T01:16:08.742Z,1006.22
2022-11-24T01:16:18.223Z,1006.24
2022-11-24T01:16:27.667Z,1006.24
2022-11-24T01:16:37.048Z,1006.20
2022-11-24T01:16:46.504Z,1006.24
2022-11-24T01:16:55.988Z,1006.20
2022-11-24T01:17:14.871Z,1006.16
2022-11-24T01:17:24.329Z,1006.20
2022-11-24T01:17:33.891Z,1006.17
2022-11-24T01:17:43.333Z,1006.23
2022-11-24T01:17:52.815Z,1006.24
2022-11-24T01:18:02.243Z,1006.25
2022-11-24T01:18:11.700Z,1006.23
2022-11-24T01:18:21.134Z,1006.21
2022-11-24T01:18:30.569Z,1006.25
2022-11-24T01:18:40.033Z,1006.16
2022-11-24T01:18:49.490Z,1006.20
2022-11-24T01:18:58.969Z,1006.21
2022-11-24T01:19:08.429Z,1006.17
2022-11-24T01:19:17.880Z,1006.14
2022-11-24T01:19:27.345Z,1006.17
2022-11-24T01:19:36.770Z,1006.11
2022-11-24T01:19:46.188Z,1006.21
2022-11-24T01:19:55.673Z,1006.22
2022-11-24T01:20:14.546Z,1006.21
2022-11-24T01:20:23.975Z,1006.20
2022-11-24T01:20:33.435Z,1006.20
2022-11-24T01:20:42.909Z,1006.18
2022-11-24T01:20:52.335Z,1006.18
2022-11-24T01:21:04.642Z,1006.13
2022-11-24T01:21:11.188Z,1006.20
2022-11-24T01:21:20.599Z,1006.21
2022-11-24T01:21:30.013Z,1006.28
2022-11-24T01:21:39.439Z,1006.17
2022-11-24T01:21:48.854Z,1006.18
2022-11-24T01:21:58.291Z,1006.18
2022-11-24T01:22:07.734Z,1006.19
2022-11-24T01:22:17.220Z,1006.24
2022-11-24T01:22:26.673Z,1006.23
2022-11-24T01:22:36.066Z,1006.27
2022-11-24T01:22:54.908Z,1006.23
2022-11-24T01:23:04.331Z,1006.22
2022-11-24T01:23:13.785Z,1006.23
2022-11-24T01:23:23.266Z,1006.19
2022-11-24T01:23:32.696Z,1006.25
2022-11-24T01:23:42.154Z,1006.23
2022-11-24T01:23:51.578Z,1006.21
2022-11-24T01:24:01.098Z,1006.27
2022-11-24T01:24:10.574Z,1006.32
2022-11-24T01:24:20.001Z,1006.29
2022-11-24T01:24:29.422Z,1006.26
2022-11-24T01:24:38.860Z,1006.22
2022-11-24T01:24:48.331Z,1006.23
2022-11-24T01:24:57.783Z,1006.18
2022-11-24T01:25:07.250Z,1006.21
2022-11-24T01:25:16.736Z,1006.21
2022-11-24T01:25:26.155Z,1006.30
2022-11-24T01:25:35.583Z,1006.32
2022-11-24T01:25:54.476Z,1006.25
2022-11-24T01:26:04.038Z,1006.19
2022-11-24T01:26:13.477Z,1006.19
2022-11-24T01:26:23.100Z,1006.26
2022-11-24T01:26:32.522Z,1006.25
2022-11-24T01:26:41.952Z,1006.13
2022-11-24T01:26:51.391Z,1006.17
2022-11-24T01:27:00.865Z,1006.23
2022-11-24T01:27:10.294Z,1006.20
2022-11-24T01:27:19.719Z,1006.24
2022-11-24T01:27:29.179Z,1006.22
2022-11-24T01:27:38.653Z,1006.17
2022-11-24T01:27:48.094Z,1006.22
2022-11-24T01:27:57.537Z,1006.24
2022-11-24T01:28:07.018Z,1006.28
2022-11-24T01:28:16.541Z,1006.16
2022-11-24T01:28:26.012Z,1006.17
2022-11-24T01:28:47.557Z,1006.20
2022-11-24T01:28:54.396Z,1006.22
2022-11-24T01:29:03.905Z,1006.21
2022-11-24T01:29:13.385Z,1006.17
2022-11-24T01:29:22.817Z,1006.17
2022-11-24T01:29:32.223Z,1006.16
2022-11-24T01:29:41.646Z,1006.14
2022-11-24T01:29:51.095Z,1006.23
2022-11-24T01:30:00.582Z,1006.24
2022-11-24T01:30:10.019Z,1006.18
2022-11-24T01:30:19.453Z,1006.17
2022-11-24T01:30:29.088Z,1006.18
2022-11-24T01:30:41.372Z,1006.21
2022-11-24T01:30:50.829Z,1006.16
2022-11-24T01:31:00.288Z,1006.17
2022-11-24T01:31:09.696Z,1006.35
2022-11-24T01:31:19.126Z,1006.19
2022-11-24T01:31:28.573Z,1006.19
2022-11-24T01:31:37.943Z,1006.33
2022-11-24T01:31:47.396Z,1006.34
2022-11-24T01:31:56.824Z,1006.21
2022-11-24T01:32:06.243Z,1006.18
2022-11-24T01:32:15.696Z,1006.11
2022-11-24T01:32:34.633Z,1006.23
2022-11-24T01:32:44.067Z,1006.10
2022-11-24T01:32:53.530Z,1006.13
2022-11-24T01:33:02.959Z,1006.17
2022-11-24T01:33:12.392Z,1006.11
2022-11-24T01:33:21.804Z,1006.14
2022-11-24T01:33:31.227Z,1006.17
2022-11-24T01:33:40.725Z,1006.15
2022-11-24T01:33:50.161Z,1006.09
2022-11-24T01:33:59.597Z,1006.13
2022-11-24T01:34:09.014Z,1006.26
2022-11-24T01:34:18.479Z,1006.13
2022-11-24T01:34:27.932Z,1006.12
2022-11-24T01:34:37.387Z,1006.16
2022-11-24T01:34:46.805Z,1006.15
2022-11-24T01:34:56.255Z,1006.12
2022-11-24T01:35:05.695Z,1006.13
2022-11-24T01:35:24.580Z,1006.18
2022-11-24T01:35:34.099Z,1006.28
2022-11-24T01:35:43.536Z,1006.17
2022-11-24T01:35:52.987Z,1006.13
2022-11-24T01:36:02.439Z,1006.09
2022-11-24T01:36:11.907Z,1006.20
2022-11-24T01:36:21.408Z,1006.25
2022-11-24T01:36:30.844Z,1006.12
2022-11-24T01:36:40.259Z,1006.21
2022-11-24T01:36:49.695Z,1006.17
2022-11-24T01:36:59.196Z,1006.21
2022-11-24T01:37:08.626Z,1006.14
2022-11-24T01:37:18.052Z,1006.14
2022-11-24T01:37:27.464Z,1006.16
2022-11-24T01:37:36.915Z,1006.07
2022-11-24T01:37:46.402Z,1006.07
2022-11-24T01:37:55.895Z,1006.16
2022-11-24T01:38:14.786Z,1006.15
2022-11-24T01:38:24.228Z,1006.11
2022-11-24T01:38:33.687Z,1006.18
2022-11-24T01:38:43.135Z,1006.10
2022-11-24T01:38:52.566Z,1006.18
2022-11-24T01:39:01.991Z,1006.19
2022-11-24T01:39:11.484Z,1006.25
2022-11-24T01:39:20.962Z,1006.15
2022-11-24T01:39:30.455Z,1006.16
2022-11-24T01:39:39.917Z,1006.14
2022-11-24T01:39:49.343Z,1006.15
2022-11-24T01:39:58.773Z,1006.17
2022-11-24T01:40:08.225Z,1006.17
2022-11-24T01:40:17.703Z,1006.12
2022-11-24T01:40:27.166Z,1006.14
2022-11-24T01:40:36.598Z,1006.09
2022-11-24T01:40:46.039Z,1006.18
2022-11-24T01:41:04.936Z,1006.13
2022-11-24T01:41:14.391Z,1006.13
2022-11-24T01:41:23.807Z,1006.15
2022-11-24T01:41:33.231Z,1006.11
2022-11-24T01:41:42.722Z,1006.16
2022-11-24T01:41:52.154Z,1006.20
2022-11-24T01:42:01.593Z,1006.15
2022-11-24T01:42:11.046Z,1006.15
2022-11-24T01:42:20.518Z,1006.10
2022-11-24T01:42:29.945Z,1006.16
2022-11-24T01:42:39.379Z,1006.10
2022-11-24T01:42:48.876Z,1006.13
2022-11-24T01:42:58.369Z,1006.10
2022-11-24T01:43:07.880Z,1006.15
2022-11-24T01:43:17.317Z,1006.11
2022-11-24T01:43:26.756Z,1006.15
2022-11-24T01:43:36.204Z,1006.19
2022-11-24T01:43:45.640Z,1006.16
2022-11-24T01:44:04.585Z,1006.19
2022-11-24T01:44:14.010Z,1006.19
2022-11-24T01:44:23.533Z,1006.10
2022-11-24T01:44:33.586Z,1006.15
2022-11-24T01:44:42.569Z,1006.20
2022-11-24T01:44:52.052Z,1006.16
2022-11-24T01:45:01.526Z,1006.15
2022-11-24T01:45:10.947Z,1006.17
2022-11-24T01:45:20.490Z,1006.11
2022-11-24T01:45:29.965Z,1006.10
2022-11-24T01:45:39.397Z,1006.09
2022-11-24T01:45:48.877Z,1006.05
2022-11-24T01:45:58.416Z,1006.10
2022-11-24T01:46:07.798Z,1006.12
2022-11-24T01:46:17.265Z,1006.16
2022-11-24T01:46:26.671Z,1006.12
2022-11-24T01:46:36.238Z,1006.13
2022-11-24T01:46:54.885Z,1006.15
2022-11-24T01:47:04.327Z,1006.12
2022-11-24T01:47:13.753Z,1006.12
2022-11-24T01:47:23.226Z,1006.11
2022-11-24T01:47:32.656Z,1006.11
2022-11-24T01:47:42.081Z,1006.07
2022-11-24T01:47:51.537Z,1006.07
2022-11-24T01:48:01.012Z,1006.17
2022-11-24T01:48:10.450Z,1006.11
2022-11-24T01:48:24.418Z,1006.08
2022-11-24T01:48:29.360Z,1006.12
2022-11-24T01:48:38.789Z,1006.12
2022-11-24T01:48:48.243Z,1006.14
2022-11-24T01:48:57.689Z,1006.16
2022-11-24T01:49:07.148Z,1006.20
2022-11-24T01:49:16.596Z,1006.24
2022-11-24T01:49:26.084Z,1006.08
2022-11-24T01:49:44.931Z,1006.14
2022-11-24T01:49:54.369Z,1006.17
2022-11-24T01:50:03.814Z,1006.17
2022-11-24T01:50:13.229Z,1006.09
2022-11-24T01:50:22.683Z,1006.09
2022-11-24T01:50:32.104Z,1006.12
2022-11-24T01:50:41.517Z,1006.20
2022-11-24T01:50:50.954Z,1006.17
2022-11-24T01:51:00.400Z,1006.22
2022-11-24T01:51:09.822Z,1006.19
2022-11-24T01:51:19.311Z,1006.12
2022-11-24T01:51:28.731Z,1006.10
2022-11-24T01:51:38.235Z,1006.18
2022-11-24T01:51:47.713Z,1006.13
2022-11-24T01:51:57.171Z,1006.13
2022-11-24T01:52:06.596Z,1006.21
2022-11-24T01:52:16.014Z,1006.13
2022-11-24T01:52:34.918Z,1006.12
2022-11-24T01:52:44.359Z,1006.14
2022-11-24T01:52:53.817Z,1006.10
2022-11-24T01:53:03.255Z,1006.14
2022-11-24T01:53:12.699Z,1006.15
2022-11-24T01:53:22.182Z,1006.22
2022-11-24T01:53:31.679Z,1006.17
2022-11-24T01:53:41.138Z,1006.17
2022-11-24T01:53:50.561Z,1006.21
2022-11-24T01:53:59.985Z,1006.19
2022-11-24T01:54:09.425Z,1006.15
2022-11-24T01:54:18.850Z,1006.16
2022-11-24T01:54:28.307Z,1006.15
2022-11-24T01:54:37.733Z,1006.22
2022-11-24T01:54:47.282Z,1006.19
2022-11-24T01:54:56.706Z,1006.21
2022-11-24T01:55:06.126Z,1006.17
2022-11-24T01:55:15.557Z,1006.17
2022-11-24T01:55:34.465Z,1006.18
2022-11-24T01:55:43.907Z,1006.15
2022-11-24T01:55:53.366Z,1006.20
2022-11-24T01:56:02.834Z,1006.17
2022-11-24T01:56:12.283Z,1006.16
2022-11-24T01:56:21.717Z,1006.12
2022-11-24T01:56:31.155Z,1006.18
2022-11-24T01:56:40.574Z,1006.19
2022-11-24T01:56:50.020Z,1006.19
2022-11-24T01:56:59.455Z,1006.26
2022-11-24T01:57:08.903Z,1006.28
2022-11-24T01:57:18.363Z,1006.23
2022-11-24T01:57:27.817Z,1006.19
2022-11-24T01:57:37.235Z,1006.18
2022-11-24T01:57:46.661Z,1006.17
2022-11-24T01:57:56.091Z,1006.16
2022-11-24T01:58:14.983Z,1006.13
2022-11-24T01:58:24.475Z,1006.33
2022-11-24T01:58:33.897Z,1006.29
2022-11-24T01:58:43.313Z,1006.39
2022-11-24T01:58:52.753Z,1006.22
2022-11-24T01:59:02.201Z,1006.29
2022-11-24T01:59:11.621Z,1006.20
2022-11-24T01:59:21.057Z,1006.19
2022-11-24T01:59:30.498Z,1006.28
2022-11-24T01:59:39.919Z,1006.26
2022-11-24T01:59:49.331Z,1006.29
2022-11-24T01:59:58.760Z,1006.29
2022-11-24T02:00:08.183Z,1006.52
2022-11-24T02:00:17.624Z,1006.40
2022-11-24T02:00:27.064Z,1006.37
2022-11-24T02:00:36.510Z,1006.36
2022-11-24T02:00:45.955Z,1006.29